Time;durP1;ratioP1;P1;durP2;ratioP2;P2;SDS_P1;SDS_P2;PMS_P1;PMS_P2;Temp;Humidity;BMP_temperature;BMP_pressure;BME280_temperature;BME280_humidity;BME280_pressure;Samples;Min_cycle;Max_cycle;Signal;HPM_P1;HPM_P2
2023/07/11 00:10:59;;;;;;;11.1;7.2;;;;;;;20.04;78.17;;;;;
2023/07/11 00:20:59;;;;;;;11.1;7.2;;;;;;;20.05;79;;;;;
2023/07/11 00:30:59;;;;;;;11.1;7.2;;;;;;;20.08;78.8;;;;;
2023/07/11 00:41:59;;;;;;;11.5;7.7;;;;;;;20.17;78.26;;;;;
2023/07/11 00:51:59;;;;;;;11.5;7.7;;;;;;;20.39;76.99;;;;;
2023/07/11 01:01:59;;;;;;;12.9;9.7;;;;;;;20.59;76.4;;;;;
2023/07/11 01:12:59;;;;;;;12.9;9.7;;;;;;;20.65;76.52;;;;;
2023/07/11 01:22:59;;;;;;;12.9;9.7;;;;;;;20.59;77.07;;;;;
2023/07/11 01:32:59;;;;;;;14;9;;;;;;;20.51;77.66;;;;;
2023/07/11 01:43:59;;;;;;;14;9;;;;;;;20.41;78.64;;;;;
2023/07/11 01:53:59;;;;;;;14;9;;;;;;;20.36;79.36;;;;;
2023/07/11 02:03:59;;;;;;;12.1;9.5;;;;;;;20.27;79.82;;;;;
2023/07/11 02:13:59;;;;;;;12.1;9.5;;;;;;;20.13;80.51;;;;;
2023/07/11 02:24:59;;;;;;;12.1;9.5;;;;;;;20.01;80.97;;;;;
2023/07/11 02:35:59;;;;;;;13.4;10.1;;;;;;;19.82;81.68;;;;;
2023/07/11 02:46:59;;;;;;;13.4;10.1;;;;;;;19.74;81.8;;;;;
2023/07/11 02:56:59;;;;;;;13.4;10.1;;;;;;;19.62;82.15;;;;;
2023/07/11 03:07:59;;;;;;;11.6;8.9;;;;;;;19.69;81.66;;;;;
2023/07/11 03:18:59;;;;;;;11.6;8.9;;;;;;;19.6;81.66;;;;;
2023/07/11 03:28:59;;;;;;;11.6;8.9;;;;;;;19.48;81.86;;;;;
2023/07/11 03:38:59;;;;;;;14.2;9.9;;;;;;;19.47;81.69;;;;;
2023/07/11 03:49:59;;;;;;;14.2;9.9;;;;;;;19.55;81.62;;;;;
2023/07/11 04:00:59;;;;;;;14.2;9.9;;;;;;;19.59;81.42;;;;;
2023/07/11 04:10:59;;;;;;;11.9;9.5;;;;;;;19.74;81.22;;;;;
2023/07/11 04:20:59;;;;;;;11.9;9.5;;;;;;;19.7;80.93;;;;;
2023/07/11 04:30:59;;;;;;;11.9;9.5;;;;;;;19.72;80.95;;;;;
2023/07/11 04:41:59;;;;;;;13.6;9.1;;;;;;;19.53;81.14;;;;;
2023/07/11 04:51:59;;;;;;;13.6;9.1;;;;;;;19.59;80.88;;;;;
2023/07/11 05:02:59;;;;;;;13.1;9.7;;;;;;;19.66;80.48;;;;;
2023/07/11 05:12:59;;;;;;;13.1;9.7;;;;;;;20.01;79.05;;;;;
2023/07/11 05:24:01;;;;;;;13.1;9.7;;;;;;;19.95;79.11;;;;;
2023/07/11 05:33:59;;;;;;;11.7;9.2;;;;;;;20.37;77.7;;;;;
2023/07/11 05:44:59;;;;;;;11.7;9.2;;;;;;;20.48;75.68;;;;;
2023/07/11 05:54:59;;;;;;;11.7;9.2;;;;;;;20.84;74.31;;;;;
2023/07/11 06:04:59;;;;;;;12.2;8.9;;;;;;;20.95;74.65;;;;;
2023/07/11 06:14:59;;;;;;;12.2;8.9;;;;;;;20.98;73.86;;;;;
2023/07/11 06:25:59;;;;;;;12.2;8.9;;;;;;;21.27;72.6;;;;;
2023/07/11 06:35:59;;;;;;;11;7.8;;;;;;;21.2;71.91;;;;;
2023/07/11 06:45:59;;;;;;;11;7.8;;;;;;;21.36;70.79;;;;;
2023/07/11 06:55:59;;;;;;;11;7.8;;;;;;;21.46;70.3;;;;;
2023/07/11 07:06:59;;;;;;;9.4;7.1;;;;;;;21.82;69.63;;;;;
2023/07/11 07:16:59;;;;;;;9.4;7.1;;;;;;;21.82;66.81;;;;;
2023/07/11 07:26:59;;;;;;;9.4;7.1;;;;;;;22.02;67.13;;;;;
2023/07/11 07:36:59;;;;;;;10.2;6.7;;;;;;;22.21;67.69;;;;;
2023/07/11 07:46:59;;;;;;;10.2;6.7;;;;;;;22.46;64.81;;;;;
2023/07/11 07:57:59;;;;;;;10.2;6.7;;;;;;;22.98;63.94;;;;;
2023/07/11 08:07:59;;;;;;;10.8;5.9;;;;;;;22.97;62.51;;;;;
2023/07/11 08:17:59;;;;;;;10.8;5.9;;;;;;;23.29;61.36;;;;;
2023/07/11 08:28:59;;;;;;;10.8;5.9;;;;;;;23.44;59.56;;;;;
2023/07/11 08:38:59;;;;;;;8.6;5.5;;;;;;;23.87;58.65;;;;;
2023/07/11 08:48:59;;;;;;;8.6;5.5;;;;;;;24.1;56.9;;;;;
2023/07/11 08:59:59;;;;;;;8.6;5.5;;;;;;;24.23;54.52;;;;;
2023/07/11 09:10:59;;;;;;;10.2;5.5;;;;;;;24.4;54.69;;;;;
2023/07/11 09:21:59;;;;;;;10.2;5.5;;;;;;;24.4;52.7;;;;;
2023/07/11 09:31:59;;;;;;;9.3;5;;;;;;;24.4;52.96;;;;;
2023/07/11 09:41:59;;;;;;;9.3;5;;;;;;;24.68;50.51;;;;;
2023/07/11 09:51:59;;;;;;;9.3;5;;;;;;;25.04;50.11;;;;;
2023/07/11 10:01:59;;;;;;;8.2;3.9;;;;;;;24.96;50.64;;;;;
2023/07/11 10:12:59;;;;;;;8.2;3.9;;;;;;;25.5;49.66;;;;;
2023/07/11 10:22:59;;;;;;;8.2;3.9;;;;;;;25.71;48.98;;;;;
2023/07/11 10:32:59;;;;;;;8.7;4.1;;;;;;;25.54;49.73;;;;;
2023/07/11 10:43:59;;;;;;;8.7;4.1;;;;;;;25.84;48.24;;;;;
2023/07/11 10:54:59;;;;;;;8.7;4.1;;;;;;;26.08;48.23;;;;;
2023/07/11 11:05:00;;;;;;;7.5;4.3;;;;;;;26.65;47.82;;;;;
2023/07/11 11:14:59;;;;;;;7.5;4.3;;;;;;;26.97;46.21;;;;;
2023/07/11 11:25:59;;;;;;;7.5;4.3;;;;;;;26.31;47.2;;;;;
2023/07/11 11:35:59;;;;;;;7.4;4.6;;;;;;;26.3;48.7;;;;;
2023/07/11 11:45:59;;;;;;;7.4;4.6;;;;;;;27.15;44.19;;;;;
2023/07/11 11:55:59;;;;;;;7.4;4.6;;;;;;;27.07;46.68;;;;;
2023/07/11 12:07:01;;;;;;;6.6;4.2;;;;;;;27.26;43.93;;;;;
2023/07/11 12:17:59;;;;;;;6.6;4.2;;;;;;;27.07;43.4;;;;;
2023/07/11 12:28:59;;;;;;;6.6;4.2;;;;;;;27.45;43.81;;;;;
2023/07/11 12:39:59;;;;;;;7.7;4.5;;;;;;;26.99;41.17;;;;;
2023/07/11 12:49:59;;;;;;;7.7;4.5;;;;;;;27.09;43.63;;;;;
2023/07/11 13:00:59;;;;;;;7.7;4.5;;;;;;;27.52;41.22;;;;;
2023/07/11 13:10:59;;;;;;;8.4;4.2;;;;;;;27.1;41.62;;;;;
2023/07/11 13:20:59;;;;;;;8.4;4.2;;;;;;;27.15;41.7;;;;;
2023/07/11 13:31:59;;;;;;;6;3.9;;;;;;;27.75;40.68;;;;;
2023/07/11 13:41:59;;;;;;;6;3.9;;;;;;;27.66;40.55;;;;;
2023/07/11 13:51:59;;;;;;;6;3.9;;;;;;;28.2;39.24;;;;;
2023/07/11 14:02:00;;;;;;;7.9;3.3;;;;;;;27.45;40.53;;;;;
2023/07/11 14:11:59;;;;;;;7.9;3.3;;;;;;;26.91;40.53;;;;;
2023/07/11 14:21:59;;;;;;;7.9;3.3;;;;;;;27.74;39.8;;;;;
2023/07/11 14:31:59;;;;;;;6.4;3.6;;;;;;;27.11;41.01;;;;;
2023/07/11 14:42:59;;;;;;;6.4;3.6;;;;;;;27.55;40;;;;;
2023/07/11 14:53:59;;;;;;;6.4;3.6;;;;;;;27.18;41.89;;;;;
2023/07/11 15:03:59;;;;;;;7.8;4;;;;;;;27.25;41.74;;;;;
2023/07/11 15:14:59;;;;;;;7.8;4;;;;;;;28;40.32;;;;;
2023/07/11 15:24:59;;;;;;;7.8;4;;;;;;;28.04;39.91;;;;;
2023/07/11 15:34:59;;;;;;;7.4;3.8;;;;;;;28.21;40.67;;;;;
2023/07/11 15:45:59;;;;;;;7.4;3.8;;;;;;;29.33;39.47;;;;;
2023/07/11 15:56:59;;;;;;;7.4;3.8;;;;;;;32.21;31.92;;;;;
2023/07/11 16:06:59;;;;;;;5.9;3.4;;;;;;;33.55;30.01;;;;;
2023/07/11 16:16:59;;;;;;;5.9;3.4;;;;;;;34.85;29.09;;;;;
2023/07/11 16:26:59;;;;;;;5.9;3.4;;;;;;;34.68;27.21;;;;;
2023/07/11 16:38:02;;;;;;;5.2;2.7;;;;;;;34.51;27.95;;;;;
2023/07/11 16:47:59;;;;;;;5.2;2.7;;;;;;;36.12;27.21;;;;;
2023/07/11 16:57:59;;;;;;;5.2;2.7;;;;;;;36.82;25.35;;;;;
2023/07/11 17:07:59;;;;;;;5.3;2.9;;;;;;;36.89;24.8;;;;;
2023/07/11 17:18:59;;;;;;;5.3;2.9;;;;;;;33.48;28.39;;;;;
2023/07/11 17:28:59;;;;;;;5.3;2.9;;;;;;;30.9;31.49;;;;;
2023/07/11 17:38:59;;;;;;;5.7;2.4;;;;;;;30.26;33.84;;;;;
2023/07/11 17:48:59;;;;;;;5.7;2.4;;;;;;;32.59;32.27;;;;;
2023/07/11 17:58:59;;;;;;;5.7;2.4;;;;;;;33.83;31.07;;;;;
2023/07/11 18:09:59;;;;;;;6.6;3.2;;;;;;;31.49;34.75;;;;;
2023/07/11 18:19:59;;;;;;;6.6;3.2;;;;;;;28.5;37.13;;;;;
2023/07/11 18:29:59;;;;;;;6.6;3.2;;;;;;;26.63;41.67;;;;;
2023/07/11 18:39:59;;;;;;;6.9;3.3;;;;;;;25.13;44.3;;;;;
2023/07/11 18:49:59;;;;;;;6.9;3.3;;;;;;;24.01;47.1;;;;;
2023/07/11 18:59:59;;;;;;;6.9;3.3;;;;;;;23.16;49.17;;;;;
2023/07/11 19:10:59;;;;;;;6.6;3.6;;;;;;;22.3;51.45;;;;;
2023/07/11 19:21:59;;;;;;;6.6;3.6;;;;;;;21.74;52.88;;;;;
2023/07/11 19:32:59;;;;;;;9;5;;;;;;;21.2;54.62;;;;;
2023/07/11 19:42:59;;;;;;;9;5;;;;;;;20.72;56.36;;;;;
2023/07/11 19:52:59;;;;;;;9;5;;;;;;;20.3;56.94;;;;;
2023/07/11 20:03:59;;;;;;;7.3;3.7;;;;;;;19.62;60.52;;;;;
2023/07/11 20:14:59;;;;;;;7.3;3.7;;;;;;;19.02;59.67;;;;;
2023/07/11 20:24:59;;;;;;;7.3;3.7;;;;;;;18.69;62.2;;;;;
2023/07/11 20:36:00;;;;;;;9.5;4.4;;;;;;;18.37;64.2;;;;;
2023/07/11 20:46:59;;;;;;;9.5;4.4;;;;;;;18.02;64.27;;;;;
2023/07/11 20:57:59;;;;;;;9.5;4.4;;;;;;;17.63;65.89;;;;;
2023/07/11 21:07:59;;;;;;;10.1;6.5;;;;;;;17.42;66.91;;;;;
2023/07/11 21:17:59;;;;;;;10.1;6.5;;;;;;;17.17;68.55;;;;;
2023/07/11 21:27:59;;;;;;;10.1;6.5;;;;;;;16.86;70.76;;;;;
2023/07/11 21:37:59;;;;;;;10.3;6.5;;;;;;;16.66;69.1;;;;;
2023/07/11 21:48:59;;;;;;;10.3;6.5;;;;;;;16.43;70.82;;;;;
2023/07/11 21:58:59;;;;;;;10.3;6.5;;;;;;;16.28;71.88;;;;;
2023/07/11 22:08:59;;;;;;;7.7;5.4;;;;;;;16.1;71.45;;;;;
2023/07/11 22:19:59;;;;;;;7.7;5.4;;;;;;;15.93;72.69;;;;;
2023/07/11 22:31:01;;;;;;;7.7;5.4;;;;;;;15.8;74.41;;;;;
2023/07/11 22:42:00;;;;;;;8.3;6.2;;;;;;;15.66;73.97;;;;;
2023/07/11 22:52:59;;;;;;;8.3;6.2;;;;;;;15.47;73.57;;;;;
2023/07/11 23:03:59;;;;;;;8.6;4.9;;;;;;;15.32;76.06;;;;;
2023/07/11 23:13:59;;;;;;;8.6;4.9;;;;;;;15.25;75.62;;;;;
2023/07/11 23:23:59;;;;;;;8.6;4.9;;;;;;;15.11;75.94;;;;;
2023/07/11 23:34:59;;;;;;;9.5;6.3;;;;;;;15;77.98;;;;;
2023/07/11 23:44:59;;;;;;;9.5;6.3;;;;;;;14.93;79.04;;;;;
2023/07/11 23:55:59;;;;;;;9.5;6.3;;;;;;;14.75;80.55;;;;;
